Terminal Aerodrome Forecast
Issued by NWS Twin Cities, MN

Home | Current Version | Previous Version | Graphics & Text | Print | Product List | Glossary On
Versions: 1 2 3 4 5 6 7 8 9 10 11 12 13 14 15 16 17 18 19 20 21 22 23 24 25 26
127
FTUS43 KMPX 161733
TAFMSP
TAF
KMSP 161733Z 1618/1724 11010KT P6SM OVC020
     FM162100 14012KT P6SM OVC025
     FM170000 14014G21KT P6SM OVC020
     FM171100 15012KT P6SM OVC020
     FM171600 16010KT 6SM -DZ BR OVC015=

USA.gov is the U.S. government's official web portal to all federal, state and local government web resources and services.